Time;durP1;ratioP1;P1;durP2;ratioP2;P2;SDS_P1;SDS_P2;PMS_P1;PMS_P2;Temp;Humidity;BMP_temperature;BMP_pressure;BME280_temperature;BME280_humidity;BME280_pressure;Samples;Min_cycle;Max_cycle;Signal;HPM_P1;HPM_P2
2022/03/22 00:01:07;;;;;;;22.33;11.02;;;;;;;2.49;52.28;102965.84;5090205;28;20503;-77
2022/03/22 00:03:33;;;;;;;23.10;10.23;;;;;;;2.13;53.28;102960.03;5090522;28;20545;-77
2022/03/22 00:06:00;;;;;;;26.45;11.93;;;;;;;2.42;52.76;102967.47;5082040;28;20044;-77
2022/03/22 00:08:26;;;;;;;22.25;10.65;;;;;;;2.59;52.42;102967.72;5089866;28;20133;-77
2022/03/22 00:10:52;;;;;;;20.95;10.98;;;;;;;2.17;53.29;102961.84;5092563;28;20044;-77
2022/03/22 00:13:19;;;;;;;27.02;12.55;;;;;;;2.04;54.12;102963.31;5080474;28;20056;-77
2022/03/22 00:15:45;;;;;;;21.25;10.98;;;;;;;1.86;54.13;102958.66;5088972;28;20036;-77
2022/03/22 00:18:19;;;;;;;20.17;11.52;;;;;;;1.58;55.13;102966.72;5088497;28;20131;-77
2022/03/22 00:20:45;;;;;;;22.38;11.20;;;;;;;1.87;54.33;102968.19;5089559;28;20488;-77
2022/03/22 00:23:13;;;;;;;23.33;10.45;;;;;;;2.15;52.99;102964.38;5089400;28;20072;-77
2022/03/22 00:25:39;;;;;;;22.85;11.25;;;;;;;1.84;53.79;102967.25;5092263;28;20075;-77
2022/03/22 00:28:05;;;;;;;21.00;11.63;;;;;;;2.03;53.27;102958.13;5089916;28;20148;-77
2022/03/22 00:30:34;;;;;;;20.40;11.15;;;;;;;1.72;53.74;102967.88;5090512;28;20129;-77
2022/03/22 00:33:02;;;;;;;22.02;11.70;;;;;;;2.05;53.04;102956.41;5089496;28;20044;-76
2022/03/22 00:35:36;;;;;;;19.90;11.15;;;;;;;1.91;54.29;102967.41;5080388;28;20723;-76
2022/03/22 00:38:03;;;;;;;25.63;11.00;;;;;;;2.15;53.49;102966.97;5069759;28;20049;-76
2022/03/22 00:40:30;;;;;;;25.27;11.43;;;;;;;1.73;54.37;102968.75;5074992;28;20044;-76
2022/03/22 00:42:57;;;;;;;26.42;10.70;;;;;;;1.56;54.74;102970.09;5089826;28;20047;-76
2022/03/22 00:45:26;;;;;;;19.75;11.10;;;;;;;1.62;54.74;102975.41;5086530;28;20505;-77
2022/03/22 00:47:54;;;;;;;24.83;12.20;;;;;;;1.26;55.85;102972.91;5088228;28;20048;-77
2022/03/22 00:50:22;;;;;;;20.85;10.95;;;;;;;1.23;56.43;102972.84;5089468;28;20105;-76
2022/03/22 00:52:50;;;;;;;22.58;11.32;;;;;;;1.19;56.72;102971.03;5089739;28;20068;-76
2022/03/22 00:55:17;;;;;;;21.73;11.90;;;;;;;1.24;55.93;102972.00;5082904;28;20432;-77
2022/03/22 00:57:44;;;;;;;22.73;11.00;;;;;;;1.50;55.09;102975.16;5084798;28;20066;-76
2022/03/22 01:00:13;;;;;;;22.92;11.82;;;;;;;1.19;55.80;102963.28;5089070;28;20824;-76
2022/03/22 01:02:40;;;;;;;19.65;11.48;;;;;;;1.04;56.10;102973.25;5089971;28;20052;-76
2022/03/22 01:05:11;;;;;;;24.15;11.05;;;;;;;1.16;56.04;102978.72;5089607;28;20477;-76
2022/03/22 01:07:38;;;;;;;21.77;10.38;;;;;;;1.44;54.79;102974.19;5070944;28;20053;-76
2022/03/22 01:10:08;;;;;;;23.48;10.80;;;;;;;1.39;54.76;102968.06;5068443;28;20649;-77
2022/03/22 01:12:35;;;;;;;21.92;10.73;;;;;;;1.24;55.07;102969.44;5081546;28;20105;-76
2022/03/22 01:15:02;;;;;;;21.98;11.48;;;;;;;0.99;56.02;102968.00;5079352;28;20048;-76
2022/03/22 01:17:31;;;;;;;21.27;11.38;;;;;;;1.12;55.65;102971.72;5075995;28;20048;-76
2022/03/22 01:19:57;;;;;;;22.05;11.10;;;;;;;1.35;54.94;102971.41;5087026;28;20060;-76
2022/03/22 01:22:25;;;;;;;22.65;11.25;;;;;;;1.06;55.50;102972.47;5091346;28;20504;-76
2022/03/22 01:24:52;;;;;;;24.10;10.98;;;;;;;1.25;54.82;102966.88;5103909;28;20044;-76
2022/03/22 01:27:21;;;;;;;22.67;11.95;;;;;;;1.51;54.21;102966.56;5092577;28;20043;-76
2022/03/22 01:29:48;;;;;;;20.60;10.55;;;;;;;1.54;53.88;102961.44;5103254;28;20044;-76
2022/03/22 01:32:14;;;;;;;20.80;10.95;;;;;;;1.10;54.97;102958.78;5108459;28;20135;-76
2022/03/22 01:34:41;;;;;;;21.00;10.90;;;;;;;1.20;55.15;102952.09;5102410;28;20044;-76
2022/03/22 01:37:08;;;;;;;19.08;10.25;;;;;;;1.06;55.24;102956.97;5096315;27;20135;-76
2022/03/22 01:39:34;;;;;;;18.50;10.40;;;;;;;0.98;55.87;102949.06;5090060;28;20051;-76
2022/03/22 01:42:01;;;;;;;18.02;10.23;;;;;;;0.89;56.25;102948.81;5102865;28;20044;-76
2022/03/22 01:44:29;;;;;;;22.55;11.23;;;;;;;1.12;55.95;102949.34;5109463;27;20051;-76
2022/03/22 01:46:59;;;;;;;17.98;10.35;;;;;;;1.10;55.95;102947.59;5111057;27;20044;-76
2022/03/22 01:49:26;;;;;;;20.73;9.95;;;;;;;1.14;55.64;102946.81;5109015;28;20067;-76
2022/03/22 01:51:52;;;;;;;19.40;10.63;;;;;;;1.15;55.37;102951.13;5111060;28;20100;-76
2022/03/22 01:54:19;;;;;;;20.20;10.70;;;;;;;1.09;55.23;102951.00;5108552;27;20479;-76
2022/03/22 01:56:46;;;;;;;22.20;11.40;;;;;;;1.00;55.14;102945.66;5110807;28;20084;-77
2022/03/22 01:59:12;;;;;;;25.35;11.35;;;;;;;0.92;55.48;102941.16;5109832;28;20104;-76
2022/03/22 02:07:11;;;;;;;25.25;11.23;;;;;;;0.82;55.64;102935.75;5095644;28;20051;-76
2022/03/22 02:09:38;;;;;;;21.58;10.85;;;;;;;0.68;56.08;102938.00;5089522;28;20054;-76
2022/03/22 02:12:06;;;;;;;21.08;10.60;;;;;;;0.67;56.12;102941.41;5101088;28;20089;-76
2022/03/22 02:14:33;;;;;;;20.83;10.13;;;;;;;0.77;55.92;102938.25;5110084;28;20200;-76
2022/03/22 02:17:07;;;;;;;23.92;11.13;;;;;;;0.68;56.22;102932.84;5109734;28;20047;-76
2022/03/22 02:19:33;;;;;;;19.70;10.80;;;;;;;0.83;55.80;102930.63;5109962;28;20075;-76
2022/03/22 02:22:02;;;;;;;17.42;9.73;;;;;;;0.65;56.67;102930.19;5107065;27;20460;-76
2022/03/22 02:24:30;;;;;;;21.27;10.27;;;;;;;0.80;56.32;102927.09;5105855;27;20480;-76
2022/03/22 02:26:56;;;;;;;19.55;10.25;;;;;;;0.91;55.95;102926.50;5109063;28;20047;-76
2022/03/22 02:29:23;;;;;;;29.42;10.77;;;;;;;0.77;56.25;102929.63;5109232;28;20105;-76
2022/03/22 02:31:49;;;;;;;19.63;10.90;;;;;;;0.92;55.80;102923.06;5105950;28;20104;-76
2022/03/22 02:34:15;;;;;;;21.33;10.82;;;;;;;0.97;55.35;102929.22;5109776;28;20043;-76
2022/03/22 02:36:42;;;;;;;21.67;10.65;;;;;;;0.83;55.42;102933.19;5107333;28;20095;-76
2022/03/22 02:39:08;;;;;;;19.58;10.65;;;;;;;0.78;55.76;102918.41;5090555;28;20059;-76
2022/03/22 02:41:36;;;;;;;18.48;9.98;;;;;;;0.76;55.53;102926.16;5107424;28;20096;-76
2022/03/22 02:44:02;;;;;;;20.95;10.05;;;;;;;0.98;54.92;102925.81;5107707;27;20092;-77
2022/03/22 02:46:29;;;;;;;19.70;10.55;;;;;;;0.93;54.88;102929.09;5109611;28;20096;-76
2022/03/22 02:48:55;;;;;;;20.40;10.52;;;;;;;1.02;54.70;102924.16;5108922;27;20044;-76
2022/03/22 02:51:22;;;;;;;18.73;10.10;;;;;;;0.92;55.48;102929.97;5109606;28;20047;-76
2022/03/22 02:53:48;;;;;;;21.88;11.07;;;;;;;1.15;54.56;102930.44;5099107;28;20113;-76
2022/03/22 02:56:15;;;;;;;18.50;10.57;;;;;;;1.17;54.43;102934.84;5107510;28;20039;-77
2022/03/22 02:58:42;;;;;;;20.83;9.85;;;;;;;1.23;54.28;102926.31;5108487;27;20043;-76
2022/03/22 03:01:09;;;;;;;18.77;10.23;;;;;;;1.03;54.56;102925.03;5107034;28;20048;-76
2022/03/22 03:03:36;;;;;;;22.88;10.55;;;;;;;1.25;54.30;102928.13;5108985;28;20683;-76
2022/03/22 03:06:04;;;;;;;21.90;10.70;;;;;;;1.11;54.64;102926.94;5109632;28;20087;-76
2022/03/22 03:08:31;;;;;;;20.15;10.10;;;;;;;1.08;54.67;102932.03;5109305;28;20066;-76
2022/03/22 03:10:57;;;;;;;23.25;10.98;;;;;;;0.75;56.02;102926.09;5107834;28;20127;-76
2022/03/22 03:13:24;;;;;;;27.15;10.65;;;;;;;0.64;56.62;102933.59;5106871;28;20097;-76
2022/03/22 03:15:52;;;;;;;20.02;10.75;;;;;;;0.63;57.20;102925.84;5109373;28;20044;-76
2022/03/22 03:18:18;;;;;;;23.42;10.38;;;;;;;0.30;58.38;102929.31;5109612;28;20059;-76
2022/03/22 03:20:45;;;;;;;21.08;10.88;;;;;;;0.17;58.64;102932.44;5108730;28;20040;-76
2022/03/22 03:23:11;;;;;;;19.25;10.43;;;;;;;0.31;58.79;102925.03;5107545;28;20093;-76
2022/03/22 03:25:38;;;;;;;23.25;11.00;;;;;;;0.46;58.15;102920.25;5105708;28;20528;-76
2022/03/22 03:28:04;;;;;;;23.60;10.77;;;;;;;0.42;58.97;102923.59;5102891;28;20047;-76
2022/03/22 03:30:31;;;;;;;22.60;10.13;;;;;;;0.32;58.47;102926.78;5101550;27;20059;-76
2022/03/22 03:32:59;;;;;;;27.38;10.60;;;;;;;0.23;59.00;102929.13;5110564;28;20470;-76
2022/03/22 03:35:25;;;;;;;19.13;10.07;;;;;;;0.34;59.59;102925.97;5106959;28;20411;-76
2022/03/22 03:37:52;;;;;;;23.95;10.43;;;;;;;0.36;59.50;102933.78;5092737;28;20048;-76
2022/03/22 03:40:18;;;;;;;20.30;9.93;;;;;;;0.45;58.48;102936.56;5092620;28;20074;-76
2022/03/22 03:42:44;;;;;;;18.83;9.93;;;;;;;0.38;58.63;102937.25;5111028;27;20501;-76
2022/03/22 03:47:57;;;;;;;21.20;10.40;;;;;;;0.49;58.79;102928.06;5113077;27;20047;-76
2022/03/22 03:50:26;;;;;;;25.23;10.60;;;;;;;0.45;59.11;102926.25;5112413;27;20105;-76
2022/03/22 03:52:53;;;;;;;19.58;10.55;;;;;;;0.45;58.41;102931.41;5108461;27;20051;-76
2022/03/22 03:55:19;;;;;;;20.67;10.80;;;;;;;0.52;58.05;102930.72;5109056;28;20035;-76
2022/03/22 03:57:46;;;;;;;20.65;10.15;;;;;;;0.60;57.68;102930.91;5112932;27;20043;-77
2022/03/22 04:00:15;;;;;;;26.33;11.05;;;;;;;0.61;57.65;102938.69;5111822;28;20075;-76
2022/03/22 04:02:41;;;;;;;23.40;11.10;;;;;;;0.58;57.68;102933.47;5112740;27;20411;-76
2022/03/22 04:05:09;;;;;;;20.35;10.38;;;;;;;0.69;56.95;102925.97;5112276;28;21599;-77
2022/03/22 04:07:37;;;;;;;19.80;9.73;;;;;;;0.69;56.49;102934.59;5110959;27;20053;-76
2022/03/22 04:10:04;;;;;;;22.88;10.63;;;;;;;0.74;56.79;102922.66;5112213;28;20130;-77
2022/03/22 04:12:31;;;;;;;19.30;10.40;;;;;;;0.66;57.36;102934.53;5112105;27;20048;-76
2022/03/22 04:14:57;;;;;;;19.42;10.48;;;;;;;0.83;56.93;102937.50;5111578;28;20055;-77
2022/03/22 04:17:23;;;;;;;21.45;10.50;;;;;;;0.76;58.18;102939.06;5112009;28;20051;-76
2022/03/22 04:19:50;;;;;;;19.92;10.15;;;;;;;0.49;58.95;102931.53;5112143;27;20097;-76
2022/03/22 04:22:18;;;;;;;20.63;10.68;;;;;;;0.65;58.43;102940.53;5111098;27;20097;-76
2022/03/22 04:24:46;;;;;;;20.58;10.15;;;;;;;0.75;57.80;102931.28;5107951;28;20040;-76
2022/03/22 04:32:49;;;;;;;20.67;10.55;;;;;;;0.47;59.12;102927.19;5102526;28;20051;-76
2022/03/22 04:35:18;;;;;;;23.63;11.77;;;;;;;0.52;59.27;102929.88;5110203;28;20556;-76
2022/03/22 04:37:47;;;;;;;25.00;11.35;;;;;;;-0.31;62.45;102944.03;5109622;28;20134;-76
2022/03/22 04:40:15;;;;;;;24.70;10.82;;;;;;;-0.40;62.68;102947.19;5109855;28;20048;-76
2022/03/22 04:42:42;;;;;;;23.90;11.05;;;;;;;0.02;61.25;102937.19;5110799;28;20055;-76
2022/03/22 04:45:09;;;;;;;20.42;10.15;;;;;;;0.09;59.91;102943.38;5110774;28;20415;-76
2022/03/22 04:47:37;;;;;;;23.45;11.05;;;;;;;0.34;58.77;102941.47;5110318;28;20120;-76
2022/03/22 04:50:03;;;;;;;19.60;9.82;;;;;;;0.40;58.96;102946.81;5106798;28;20047;-76
2022/03/22 04:58:00;;;;;;;23.77;9.70;;;;;;;0.04;60.29;102953.56;5110656;28;20542;-76
2022/03/22 05:00:26;;;;;;;23.25;10.30;;;;;;;0.18;59.99;102952.25;5109782;28;20082;-76
2022/03/22 05:02:53;;;;;;;22.00;10.10;;;;;;;-0.06;61.60;102946.44;5109797;28;20044;-76
2022/03/22 05:06:25;;;;;;;17.17;10.02;;;;;;;0.09;61.23;102933.94;5110241;27;20065;-76
2022/03/22 05:08:06;;;;;;;20.90;10.73;;;;;;;0.12;60.37;102951.19;5108292;28;20058;-76
2022/03/22 05:10:34;;;;;;;20.75;10.57;;;;;;;-0.18;61.43;102944.38;5109617;28;20051;-76
2022/03/22 05:13:00;;;;;;;24.40;10.35;;;;;;;-0.11;60.50;102956.63;5110055;28;20097;-76
2022/03/22 05:15:27;;;;;;;22.13;10.63;;;;;;;0.04;59.70;102958.72;5109074;28;20093;-76
2022/03/22 05:17:53;;;;;;;24.35;10.68;;;;;;;0.00;59.84;102957.78;5110088;28;20047;-75
2022/03/22 05:20:20;;;;;;;22.50;11.00;;;;;;;0.12;59.49;102957.22;5109581;28;20093;-75
2022/03/22 05:22:46;;;;;;;23.15;11.30;;;;;;;-0.50;61.80;102970.97;5070963;28;1009162;-75
2022/03/22 05:25:12;;;;;;;22.75;10.38;;;;;;;-0.33;61.36;102963.75;5105357;28;20044;-76
2022/03/22 05:27:41;;;;;;;26.73;10.15;;;;;;;-0.05;60.43;102963.66;5110440;27;20088;-76
2022/03/22 05:30:09;;;;;;;22.25;11.00;;;;;;;-0.16;60.44;102960.78;5110572;28;20051;-76
2022/03/22 05:32:36;;;;;;;19.67;10.65;;;;;;;0.04;59.79;102965.63;5109197;27;20097;-76
2022/03/22 05:35:02;;;;;;;21.13;10.60;;;;;;;0.00;59.98;102960.34;5109015;27;20055;-76
2022/03/22 05:37:29;;;;;;;20.67;11.35;;;;;;;-0.14;59.90;102966.84;5110943;27;20047;-76
2022/03/22 05:39:55;;;;;;;20.83;11.00;;;;;;;0.21;59.27;102959.19;5110339;28;20507;-76
2022/03/22 05:42:21;;;;;;;20.13;9.60;;;;;;;0.74;58.01;102960.53;5111204;28;20540;-76
2022/03/22 05:44:49;;;;;;;22.15;11.80;;;;;;;0.96;57.17;102955.88;5111142;28;20044;-76
2022/03/22 05:47:15;;;;;;;22.02;10.50;;;;;;;1.10;56.52;102969.13;5110760;27;20043;-76
2022/03/22 05:49:42;;;;;;;25.00;11.15;;;;;;;1.55;55.54;102963.22;5110071;27;24339;-76
2022/03/22 05:52:08;;;;;;;24.10;12.10;;;;;;;1.68;55.01;102958.31;5108968;28;20051;-75
2022/03/22 05:54:35;;;;;;;21.25;11.23;;;;;;;2.06;54.22;102959.06;5102252;28;20461;-76
2022/03/22 05:57:01;;;;;;;23.95;10.93;;;;;;;1.71;55.16;102971.28;5108947;27;20040;-76
2022/03/22 05:59:27;;;;;;;22.13;11.95;;;;;;;1.82;54.55;102966.31;5109551;28;20097;-73
2022/03/22 06:01:55;;;;;;;20.23;11.15;;;;;;;2.29;53.91;102968.06;5110185;28;20120;-73
2022/03/22 06:04:21;;;;;;;18.42;10.70;;;;;;;2.89;52.73;102970.81;5110263;27;20217;-74
2022/03/22 06:06:48;;;;;;;21.05;12.10;;;;;;;3.23;52.01;102977.38;5110450;28;20104;-74
2022/03/22 06:09:15;;;;;;;20.70;11.20;;;;;;;3.83;50.70;102969.50;5109440;28;20050;-73
2022/03/22 06:11:42;;;;;;;28.77;11.85;;;;;;;4.03;49.70;102972.31;5110078;27;20515;-73
2022/03/22 06:14:09;;;;;;;25.13;12.57;;;;;;;4.65;49.18;102977.25;5110132;28;20042;-74
2022/03/22 06:16:35;;;;;;;26.48;13.23;;;;;;;4.60;50.47;102977.19;5109718;28;20126;-73
2022/03/22 06:19:03;;;;;;;27.15;12.27;;;;;;;5.36;47.54;102977.72;5109647;28;20054;-74
2022/03/22 06:21:29;;;;;;;25.00;11.98;;;;;;;5.19;47.09;102971.56;5109997;27;20048;-73
2022/03/22 06:23:56;;;;;;;26.83;13.10;;;;;;;5.12;48.87;102978.44;5101248;28;20067;-74
2022/03/22 06:26:22;;;;;;;22.60;12.32;;;;;;;5.68;46.66;102975.28;5109579;28;20067;-74
2022/03/22 06:28:49;;;;;;;21.05;11.75;;;;;;;6.67;41.49;102969.41;5089179;28;20055;-74
2022/03/22 06:31:16;;;;;;;22.52;12.63;;;;;;;6.84;41.78;102978.09;5101655;28;20051;-74
2022/03/22 06:33:42;;;;;;;20.95;12.82;;;;;;;7.08;41.11;102979.81;5110195;27;20631;-74
2022/03/22 06:36:10;;;;;;;22.15;12.27;;;;;;;7.30;39.84;102978.03;5100882;28;20047;-74
2022/03/22 06:38:37;;;;;;;24.35;12.68;;;;;;;7.79;39.13;102974.38;5109757;28;20473;-68
2022/03/22 06:41:03;;;;;;;20.25;11.95;;;;;;;7.31;39.75;102975.44;5109255;27;20097;-67
2022/03/22 06:43:30;;;;;;;19.95;12.63;;;;;;;7.55;40.42;102989.25;5093588;28;20123;-67
2022/03/22 06:45:56;;;;;;;20.30;11.82;;;;;;;7.96;39.24;102976.00;5108695;27;20096;-68
2022/03/22 06:48:23;;;;;;;24.17;13.77;;;;;;;7.49;39.92;102986.69;5105455;28;20063;-66
2022/03/22 06:50:50;;;;;;;20.10;12.57;;;;;;;6.75;40.34;102985.94;5109688;28;20597;-66
2022/03/22 06:53:19;;;;;;;26.08;12.25;;;;;;;8.03;38.82;102982.94;5101766;28;20534;-66
2022/03/22 06:55:46;;;;;;;21.50;13.02;;;;;;;8.20;40.37;102986.34;5108864;28;20051;-66
2022/03/22 06:58:14;;;;;;;19.00;12.43;;;;;;;9.12;36.75;102987.38;5109116;28;20170;-66
2022/03/22 07:00:41;;;;;;;23.05;12.30;;;;;;;9.61;37.66;102987.66;5108718;28;20058;-66
2022/03/22 07:03:08;;;;;;;26.95;13.30;;;;;;;9.55;37.23;102979.91;5109342;28;20054;-67
2022/03/22 07:05:34;;;;;;;22.48;13.23;;;;;;;9.43;38.28;102980.91;5108367;28;20051;-66
2022/03/22 07:08:01;;;;;;;24.65;13.13;;;;;;;9.55;35.34;102987.75;5108542;28;20036;-67
2022/03/22 07:10:30;;;;;;;21.67;13.57;;;;;;;10.14;34.90;102986.97;5109157;28;20069;-68
2022/03/22 07:12:58;;;;;;;20.45;13.13;;;;;;;10.09;36.20;102991.41;5108796;28;20039;-68
2022/03/22 07:15:28;;;;;;;21.08;13.48;;;;;;;10.25;36.05;102993.84;5109072;28;20065;-68
2022/03/22 07:17:55;;;;;;;20.17;13.57;;;;;;;9.76;36.07;102993.59;5109011;28;20039;-68
2022/03/22 07:20:23;;;;;;;18.52;12.13;;;;;;;9.90;36.49;103000.44;5101315;28;20040;-68
2022/03/22 07:22:51;;;;;;;23.25;13.18;;;;;;;10.28;35.76;102995.53;5107935;28;20043;-68
2022/03/22 07:25:18;;;;;;;23.50;13.57;;;;;;;10.79;35.43;103000.88;5108893;28;20069;-68
2022/03/22 07:27:46;;;;;;;36.25;13.50;;;;;;;10.10;35.38;103008.88;5105541;28;20489;-68
2022/03/22 07:30:14;;;;;;;20.73;12.65;;;;;;;10.69;35.51;103005.41;5108536;28;20126;-68
2022/03/22 07:32:41;;;;;;;21.52;13.57;;;;;;;11.25;35.76;102999.16;5109236;28;20069;-68
2022/03/22 07:35:09;;;;;;;20.13;13.40;;;;;;;11.07;35.66;103008.25;5108071;28;20052;-68
2022/03/22 07:37:36;;;;;;;21.35;13.40;;;;;;;10.16;36.01;103004.44;5104779;28;20055;-68
2022/03/22 07:40:05;;;;;;;20.88;13.32;;;;;;;10.16;36.43;103012.31;5096105;27;20094;-68
2022/03/22 07:42:32;;;;;;;20.60;12.98;;;;;;;10.74;34.94;103008.81;5099329;27;20047;-68
2022/03/22 07:45:01;;;;;;;24.05;14.05;;;;;;;10.61;34.74;103009.91;5097628;27;20169;-68
2022/03/22 07:47:28;;;;;;;21.88;13.13;;;;;;;10.70;34.00;103007.13;5096873;27;20074;-68
2022/03/22 07:55:23;;;;;;;19.40;12.25;;;;;;;10.17;33.54;103021.03;5090797;27;20104;-68
2022/03/22 07:57:50;;;;;;;20.52;13.20;;;;;;;10.19;34.25;103008.81;5097813;27;20055;-67
2022/03/22 08:00:18;;;;;;;19.20;11.73;;;;;;;10.55;34.71;103017.88;5097426;27;20067;-68
2022/03/22 08:02:52;;;;;;;21.25;12.98;;;;;;;10.58;33.38;103016.06;5096317;27;20055;-68
2022/03/22 08:05:19;;;;;;;20.25;12.63;;;;;;;10.71;32.62;103019.38;5099035;27;21490;-68
2022/03/22 08:07:45;;;;;;;20.77;12.48;;;;;;;12.01;32.27;103018.69;5098932;28;20568;-67
2022/03/22 08:10:11;;;;;;;22.10;12.93;;;;;;;12.36;32.30;103013.50;5096324;27;20261;-68
2022/03/22 08:12:38;;;;;;;22.73;13.02;;;;;;;11.68;31.56;103020.22;5097302;27;20071;-68
2022/03/22 08:15:05;;;;;;;22.10;13.38;;;;;;;11.00;32.27;103017.13;5096072;27;20119;-68
2022/03/22 08:17:33;;;;;;;27.67;12.45;;;;;;;11.70;32.42;103021.94;5101552;27;20059;-68
2022/03/22 08:19:59;;;;;;;20.08;12.85;;;;;;;12.96;32.96;103011.16;5102399;27;20063;-68
2022/03/22 08:22:25;;;;;;;26.42;13.30;;;;;;;13.75;28.13;103003.72;5101246;27;20101;-68
2022/03/22 08:24:52;;;;;;;16.85;11.93;;;;;;;12.16;31.54;103013.06;5102214;27;20047;-68
2022/03/22 08:27:19;;;;;;;19.15;11.73;;;;;;;12.80;31.70;103016.84;5096320;28;20047;-67
2022/03/22 08:29:45;;;;;;;18.33;12.77;;;;;;;12.58;30.30;103020.00;5101502;28;20059;-67
2022/03/22 08:32:12;;;;;;;19.40;12.05;;;;;;;12.89;30.34;103014.00;5100402;28;20071;-67
2022/03/22 08:34:39;;;;;;;19.67;11.68;;;;;;;13.11;32.10;103017.84;5101168;28;20079;-67
2022/03/22 08:37:06;;;;;;;20.27;12.35;;;;;;;13.98;29.12;103010.97;5100668;28;20052;-67
2022/03/22 08:39:32;;;;;;;19.83;11.35;;;;;;;14.40;30.48;103004.41;5097354;28;20129;-67
2022/03/22 08:41:58;;;;;;;17.52;11.90;;;;;;;12.62;30.10;103000.59;5100399;28;20056;-67
2022/03/22 08:44:25;;;;;;;22.63;13.30;;;;;;;13.27;30.76;103000.69;5099384;28;20079;-67
2022/03/22 08:46:51;;;;;;;20.35;12.60;;;;;;;12.53;30.31;103002.56;5098854;28;20055;-67
2022/03/22 08:49:18;;;;;;;23.13;11.88;;;;;;;13.82;29.66;102991.25;5107940;28;20043;-67
2022/03/22 08:51:49;;;;;;;16.83;11.32;;;;;;;12.98;29.38;102997.94;5111734;28;20051;-67
2022/03/22 08:54:17;;;;;;;21.15;11.30;;;;;;;12.87;29.21;102989.44;5111525;28;20039;-67
2022/03/22 08:56:43;;;;;;;18.02;11.40;;;;;;;13.57;30.37;102988.44;5099717;28;20059;-67
2022/03/22 08:59:09;;;;;;;17.52;11.40;;;;;;;14.79;27.21;102993.44;5090243;28;20093;-67
2022/03/22 09:01:36;;;;;;;16.38;11.20;;;;;;;15.37;26.67;102982.56;5101199;28;20044;-68
2022/03/22 09:06:47;;;;;;;16.17;11.15;;;;;;;15.86;27.28;102988.72;5100433;28;20057;-67
2022/03/22 09:09:14;;;;;;;16.27;10.75;;;;;;;16.30;26.39;102989.63;5098605;28;20461;-68
2022/03/22 09:11:40;;;;;;;17.73;11.35;;;;;;;17.46;25.09;102989.09;5101253;28;20040;-68
2022/03/22 09:14:06;;;;;;;15.95;11.40;;;;;;;17.16;25.05;102988.66;5103249;28;20373;-68
2022/03/22 09:16:33;;;;;;;15.82;11.30;;;;;;;17.59;23.63;102982.31;5099843;28;20436;-68
2022/03/22 09:18:59;;;;;;;18.25;11.90;;;;;;;16.59;25.65;102988.50;5092638;28;20145;-68
2022/03/22 09:21:27;;;;;;;15.07;10.75;;;;;;;15.65;24.67;102989.53;5104142;28;20124;-68
2022/03/22 09:23:55;;;;;;;17.17;10.57;;;;;;;15.89;24.03;102983.34;5110807;28;20065;-67
2022/03/22 09:26:21;;;;;;;16.73;11.02;;;;;;;15.82;25.30;102985.31;5108194;28;20048;-68
2022/03/22 09:28:52;;;;;;;17.90;10.57;;;;;;;16.22;26.26;102976.69;5089299;28;20044;-67
2022/03/22 09:31:18;;;;;;;20.15;11.40;;;;;;;16.66;24.53;102976.72;5098472;28;20036;-68
2022/03/22 09:33:45;;;;;;;16.80;10.63;;;;;;;17.46;24.40;102968.75;5109545;28;20059;-71
2022/03/22 09:36:11;;;;;;;15.40;10.43;;;;;;;17.43;24.26;102963.59;5109553;28;20411;-68
2022/03/22 09:38:38;;;;;;;19.38;10.25;;;;;;;17.45;23.54;102959.06;5109270;28;20052;-68
2022/03/22 09:41:07;;;;;;;18.88;10.73;;;;;;;16.93;23.28;102959.63;5105563;28;20040;-67
2022/03/22 09:43:36;;;;;;;15.10;10.30;;;;;;;17.76;23.54;102947.06;5090479;28;20040;-67
2022/03/22 09:46:05;;;;;;;16.42;10.50;;;;;;;17.57;24.35;102956.81;5097832;28;20072;-67
2022/03/22 09:48:33;;;;;;;15.48;10.23;;;;;;;18.54;24.18;102952.16;5097302;28;20058;-67
2022/03/22 09:53:43;;;;;;;16.15;10.70;;;;;;;18.94;21.40;102951.84;5090711;28;20058;-67
2022/03/22 09:56:11;;;;;;;17.63;10.43;;;;;;;19.52;21.22;102946.09;5101412;28;20153;-68
2022/03/22 09:58:37;;;;;;;14.48;10.20;;;;;;;18.94;21.74;102955.34;5108520;28;20063;-68
2022/03/22 10:01:05;;;;;;;13.00;9.93;;;;;;;18.64;23.08;102956.91;5109794;28;20043;-68
2022/03/22 10:03:31;;;;;;;16.35;10.00;;;;;;;19.23;20.54;102943.19;5098754;28;20048;-67
2022/03/22 10:05:59;;;;;;;16.42;10.35;;;;;;;19.08;20.73;102944.00;5089903;28;20040;-68
2022/03/22 10:08:25;;;;;;;18.33;11.07;;;;;;;17.91;21.93;102949.00;5092207;28;20197;-68
2022/03/22 10:10:58;;;;;;;17.60;10.60;;;;;;;18.96;23.23;102947.28;5102143;28;20114;-67
2022/03/22 10:13:27;;;;;;;17.48;10.55;;;;;;;19.21;22.27;102941.56;5084299;28;20062;-67
2022/03/22 10:16:01;;;;;;;16.02;11.25;;;;;;;19.38;23.02;102941.50;5110317;28;20039;-67
2022/03/22 10:18:28;;;;;;;16.33;10.68;;;;;;;19.69;21.38;102932.75;5109634;27;20124;-68
2022/03/22 10:21:00;;;;;;;18.20;10.73;;;;;;;19.76;23.86;102934.13;5109976;27;20694;-67
2022/03/22 10:23:27;;;;;;;;;;;;;;;19.56;25.18;102923.72;5110165;28;20043;-67
2022/03/22 10:26:03;;;;;;;15.30;10.70;;;;;;;19.86;22.10;102924.66;5110242;27;19981;-67
2022/03/22 10:28:31;;;;;;;15.68;11.43;;;;;;;20.64;23.72;102918.38;5097346;28;20140;-67
2022/03/22 10:30:58;;;;;;;16.70;11.52;;;;;;;19.65;21.93;102916.09;5101913;28;20432;-67
2022/03/22 10:33:25;;;;;;;18.65;11.18;;;;;;;19.10;24.49;102920.84;5071999;28;20076;-66
2022/03/22 10:35:51;;;;;;;18.48;11.77;;;;;;;19.67;23.80;102918.66;5090163;28;20044;-67
2022/03/22 10:38:19;;;;;;;15.55;11.02;;;;;;;20.20;24.48;102912.97;5089576;28;20039;-67
2022/03/22 10:40:47;;;;;;;18.13;10.18;;;;;;;20.16;23.76;102914.94;5099132;27;20059;-67
2022/03/22 10:43:18;;;;;;;18.35;11.00;;;;;;;20.17;22.39;102910.47;5093968;28;20052;-67
2022/03/22 10:45:47;;;;;;;18.23;11.17;;;;;;;20.45;24.58;102907.94;5110562;28;20051;-67
2022/03/22 10:48:18;;;;;;;15.27;10.68;;;;;;;19.97;21.79;102905.41;5110777;28;20043;-68
2022/03/22 10:50:47;;;;;;;18.10;11.02;;;;;;;19.72;23.25;102913.94;5108878;28;20457;-67
2022/03/22 10:53:15;;;;;;;16.05;11.02;;;;;;;20.70;19.80;102905.53;5111044;28;20122;-67
2022/03/22 10:55:43;;;;;;;14.27;9.90;;;;;;;20.61;20.06;102908.78;5110523;28;20047;-67
2022/03/22 10:58:12;;;;;;;18.95;10.32;;;;;;;19.92;20.09;102908.34;5112701;28;20092;-67
2022/03/22 11:00:41;;;;;;;23.02;10.80;;;;;;;19.89;21.85;102900.53;5110022;27;20055;-67
2022/03/22 11:03:09;;;;;;;17.15;10.27;;;;;;;19.66;21.69;102908.97;5109994;28;20043;-67
2022/03/22 11:05:37;;;;;;;19.67;9.38;;;;;;;19.66;22.00;102908.97;5110027;28;20101;-67
2022/03/22 11:08:03;;;;;;;13.75;9.75;;;;;;;19.51;21.19;102905.31;5109807;28;20039;-67
2022/03/22 11:10:30;;;;;;;14.77;10.30;;;;;;;20.22;21.59;102903.06;5106317;28;20443;-67
2022/03/22 11:12:57;;;;;;;18.17;9.95;;;;;;;20.43;20.04;102903.66;5108527;28;20445;-67
2022/03/22 11:15:25;;;;;;;14.70;9.85;;;;;;;20.06;19.38;102897.78;5108014;28;20071;-67
2022/03/22 11:17:53;;;;;;;17.08;10.13;;;;;;;19.72;19.71;102903.28;5109842;28;20097;-68
2022/03/22 11:20:24;;;;;;;15.40;9.45;;;;;;;19.64;21.50;102901.06;5110028;28;20047;-67
2022/03/22 11:22:54;;;;;;;12.45;9.10;;;;;;;19.43;19.31;102892.47;5116610;28;20073;-66
2022/03/22 11:25:28;;;;;;;15.50;9.23;;;;;;;19.68;20.79;102886.63;5106757;28;20044;-67
2022/03/22 11:27:58;;;;;;;15.85;9.65;;;;;;;19.65;20.36;102888.63;5113381;28;20044;-66
2022/03/22 11:30:25;;;;;;;14.10;10.13;;;;;;;19.97;20.40;102882.31;5126397;28;20134;-68
2022/03/22 11:35:44;;;;;;;12.65;9.00;;;;;;;18.61;20.08;102888.00;5040615;28;20052;-67
2022/03/22 11:38:13;;;;;;;16.38;10.07;;;;;;;18.56;22.39;102890.00;5069499;28;20069;-66
2022/03/22 11:43:42;;;;;;;16.75;10.23;;;;;;;19.13;21.48;102885.25;5072760;28;20569;-67
2022/03/22 11:46:08;;;;;;;15.25;9.38;;;;;;;19.27;21.75;102870.25;5090132;28;20543;-67
2022/03/22 11:48:39;;;;;;;17.65;9.80;;;;;;;19.01;23.19;102873.47;5089263;28;20048;-68
2022/03/22 11:51:08;;;;;;;19.25;10.23;;;;;;;19.29;19.90;102872.84;5089651;28;20503;-68